sensor_id;sensor_type;location;lat;lon;timestamp;temperature;humidity
71084;DHT22;58741;52.672;13.548;2023-03-14T00:00:22;11.80;99.70
71084;DHT22;58741;52.672;13.548;2023-03-14T00:02:52;11.80;99.70
71084;DHT22;58741;52.672;13.548;2023-03-14T00:05:18;11.70;99.60
71084;DHT22;58741;52.672;13.548;2023-03-14T00:07:43;11.70;99.60
71084;DHT22;58741;52.672;13.548;2023-03-14T00:10:12;11.70;99.60
71084;DHT22;58741;52.672;13.548;2023-03-14T00:12:40;11.70;99.70
71084;DHT22;58741;52.672;13.548;2023-03-14T00:15:06;11.70;99.80
71084;DHT22;58741;52.672;13.548;2023-03-14T00:17:33;11.60;99.80
71084;DHT22;58741;52.672;13.548;2023-03-14T00:19:59;11.60;99.70
71084;DHT22;58741;52.672;13.548;2023-03-14T00:22:37;11.60;99.70
71084;DHT22;58741;52.672;13.548;2023-03-14T00:25:04;11.50;99.70
71084;DHT22;58741;52.672;13.548;2023-03-14T00:27:30;11.50;99.80
71084;DHT22;58741;52.672;13.548;2023-03-14T00:29:55;11.50;99.70
71084;DHT22;58741;52.672;13.548;2023-03-14T00:32:21;11.50;99.70
71084;DHT22;58741;52.672;13.548;2023-03-14T00:34:46;11.50;99.60
71084;DHT22;58741;52.672;13.548;2023-03-14T00:37:12;11.50;99.70
71084;DHT22;58741;52.672;13.548;2023-03-14T00:39:38;11.40;99.60
71084;DHT22;58741;52.672;13.548;2023-03-14T00:42:03;11.40;99.70
71084;DHT22;58741;52.672;13.548;2023-03-14T00:44:29;11.40;99.70
71084;DHT22;58741;52.672;13.548;2023-03-14T00:46:54;11.40;99.80
71084;DHT22;58741;52.672;13.548;2023-03-14T00:49:20;11.30;99.80
71084;DHT22;58741;52.672;13.548;2023-03-14T00:51:46;11.30;99.80
71084;DHT22;58741;52.672;13.548;2023-03-14T00:54:11;11.30;99.90
71084;DHT22;58741;52.672;13.548;2023-03-14T00:56:37;11.30;99.90
71084;DHT22;58741;52.672;13.548;2023-03-14T00:59:02;11.30;99.90
71084;DHT22;58741;52.672;13.548;2023-03-14T01:01:28;11.20;99.90
71084;DHT22;58741;52.672;13.548;2023-03-14T01:03:55;11.20;99.90
71084;DHT22;58741;52.672;13.548;2023-03-14T01:06:24;11.20;99.90
71084;DHT22;58741;52.672;13.548;2023-03-14T01:08:50;11.20;99.90
71084;DHT22;58741;52.672;13.548;2023-03-14T01:11:22;11.20;99.90
71084;DHT22;58741;52.672;13.548;2023-03-14T01:13:49;11.20;99.90
71084;DHT22;58741;52.672;13.548;2023-03-14T01:16:15;11.10;99.90
71084;DHT22;58741;52.672;13.548;2023-03-14T01:18:42;11.10;99.90
71084;DHT22;58741;52.672;13.548;2023-03-14T01:21:20;11.10;99.90
71084;DHT22;58741;52.672;13.548;2023-03-14T01:23:47;11.10;99.90
71084;DHT22;58741;52.672;13.548;2023-03-14T01:26:15;11.10;99.90
71084;DHT22;58741;52.672;13.548;2023-03-14T01:28:41;11.10;99.90
71084;DHT22;58741;52.672;13.548;2023-03-14T01:31:09;11.10;99.90
71084;DHT22;58741;52.672;13.548;2023-03-14T01:33:35;11.00;99.90
71084;DHT22;58741;52.672;13.548;2023-03-14T01:36:01;11.00;99.90
71084;DHT22;58741;52.672;13.548;2023-03-14T01:38:37;11.00;99.90
71084;DHT22;58741;52.672;13.548;2023-03-14T01:41:03;11.00;99.90
71084;DHT22;58741;52.672;13.548;2023-03-14T01:43:30;11.00;99.90
71084;DHT22;58741;52.672;13.548;2023-03-14T01:48:45;11.00;99.90
71084;DHT22;58741;52.672;13.548;2023-03-14T01:52:04;11.00;99.90
71084;DHT22;58741;52.672;13.548;2023-03-14T01:54:21;10.90;99.90
71084;DHT22;58741;52.672;13.548;2023-03-14T01:57:01;10.90;99.90
71084;DHT22;58741;52.672;13.548;2023-03-14T01:59:30;10.90;99.90
71084;DHT22;58741;52.672;13.548;2023-03-14T02:01:57;10.90;99.90
71084;DHT22;58741;52.672;13.548;2023-03-14T02:04:23;10.90;99.90
71084;DHT22;58741;52.672;13.548;2023-03-14T02:07:10;10.90;99.90
71084;DHT22;58741;52.672;13.548;2023-03-14T02:09:43;11.00;99.90
71084;DHT22;58741;52.672;13.548;2023-03-14T02:12:15;10.90;99.90
71084;DHT22;58741;52.672;13.548;2023-03-14T02:14:46;11.00;99.90
71084;DHT22;58741;52.672;13.548;2023-03-14T02:17:42;11.00;99.90
71084;DHT22;58741;52.672;13.548;2023-03-14T02:23:02;11.00;99.90
71084;DHT22;58741;52.672;13.548;2023-03-14T02:27:58;10.90;99.90
71084;DHT22;58741;52.672;13.548;2023-03-14T02:30:28;10.90;99.90
71084;DHT22;58741;52.672;13.548;2023-03-14T02:35:36;10.90;99.90
71084;DHT22;58741;52.672;13.548;2023-03-14T02:38:21;10.90;99.90
71084;DHT22;58741;52.672;13.548;2023-03-14T02:40:48;10.90;99.90
71084;DHT22;58741;52.672;13.548;2023-03-14T02:43:14;10.90;99.90
71084;DHT22;58741;52.672;13.548;2023-03-14T02:45:47;10.90;99.90
71084;DHT22;58741;52.672;13.548;2023-03-14T02:48:30;10.80;99.90
71084;DHT22;58741;52.672;13.548;2023-03-14T02:50:58;10.80;99.90
71084;DHT22;58741;52.672;13.548;2023-03-14T02:53:27;10.90;99.90
71084;DHT22;58741;52.672;13.548;2023-03-14T02:55:57;10.90;99.90
71084;DHT22;58741;52.672;13.548;2023-03-14T02:58:24;10.90;99.90
71084;DHT22;58741;52.672;13.548;2023-03-14T03:00:55;10.90;99.90
71084;DHT22;58741;52.672;13.548;2023-03-14T03:03:22;10.90;99.90
71084;DHT22;58741;52.672;13.548;2023-03-14T03:05:49;10.90;99.90
71084;DHT22;58741;52.672;13.548;2023-03-14T03:08:16;10.90;99.90
71084;DHT22;58741;52.672;13.548;2023-03-14T03:10:42;10.90;99.90
71084;DHT22;58741;52.672;13.548;2023-03-14T03:13:07;10.90;99.90
71084;DHT22;58741;52.672;13.548;2023-03-14T03:15:33;10.90;99.90
71084;DHT22;58741;52.672;13.548;2023-03-14T03:17:59;10.90;99.90
71084;DHT22;58741;52.672;13.548;2023-03-14T03:20:25;10.90;99.90
71084;DHT22;58741;52.672;13.548;2023-03-14T03:22:50;10.90;99.90
71084;DHT22;58741;52.672;13.548;2023-03-14T03:25:16;10.80;99.90
71084;DHT22;58741;52.672;13.548;2023-03-14T03:27:44;10.80;99.90
71084;DHT22;58741;52.672;13.548;2023-03-14T03:30:10;10.80;99.90
71084;DHT22;58741;52.672;13.548;2023-03-14T03:32:36;10.80;99.90
71084;DHT22;58741;52.672;13.548;2023-03-14T03:35:04;10.70;99.90
71084;DHT22;58741;52.672;13.548;2023-03-14T03:37:32;10.70;99.90
71084;DHT22;58741;52.672;13.548;2023-03-14T03:39:57;10.70;99.90
71084;DHT22;58741;52.672;13.548;2023-03-14T03:42:23;10.70;99.90
71084;DHT22;58741;52.672;13.548;2023-03-14T03:44:49;10.70;99.90
71084;DHT22;58741;52.672;13.548;2023-03-14T03:47:15;10.60;99.90
71084;DHT22;58741;52.672;13.548;2023-03-14T03:49:41;10.60;99.90
71084;DHT22;58741;52.672;13.548;2023-03-14T03:52:09;10.60;99.90
71084;DHT22;58741;52.672;13.548;2023-03-14T03:54:35;10.60;99.90
71084;DHT22;58741;52.672;13.548;2023-03-14T03:57:01;10.60;99.90
71084;DHT22;58741;52.672;13.548;2023-03-14T03:59:26;10.60;99.90
71084;DHT22;58741;52.672;13.548;2023-03-14T04:01:52;10.50;99.90
71084;DHT22;58741;52.672;13.548;2023-03-14T04:04:18;10.60;99.90
71084;DHT22;58741;52.672;13.548;2023-03-14T04:06:43;10.60;99.90
71084;DHT22;58741;52.672;13.548;2023-03-14T04:09:10;10.50;99.90
71084;DHT22;58741;52.672;13.548;2023-03-14T04:11:45;10.50;99.90
71084;DHT22;58741;52.672;13.548;2023-03-14T04:14:20;10.50;99.90
71084;DHT22;58741;52.672;13.548;2023-03-14T04:16:46;10.50;99.90
71084;DHT22;58741;52.672;13.548;2023-03-14T04:19:16;10.50;99.90
71084;DHT22;58741;52.672;13.548;2023-03-14T04:21:42;10.50;99.90
71084;DHT22;58741;52.672;13.548;2023-03-14T04:24:13;10.50;99.90
71084;DHT22;58741;52.672;13.548;2023-03-14T04:26:39;10.50;99.90
71084;DHT22;58741;52.672;13.548;2023-03-14T04:29:05;10.50;99.90
71084;DHT22;58741;52.672;13.548;2023-03-14T04:31:31;10.40;99.90
71084;DHT22;58741;52.672;13.548;2023-03-14T04:33:56;10.40;99.90
71084;DHT22;58741;52.672;13.548;2023-03-14T04:36:34;10.40;99.90
71084;DHT22;58741;52.672;13.548;2023-03-14T04:39:04;10.40;99.90
71084;DHT22;58741;52.672;13.548;2023-03-14T04:41:31;10.40;99.90
71084;DHT22;58741;52.672;13.548;2023-03-14T04:43:57;10.40;99.90
71084;DHT22;58741;52.672;13.548;2023-03-14T04:46:23;10.40;99.90
71084;DHT22;58741;52.672;13.548;2023-03-14T04:48:49;10.30;99.90
71084;DHT22;58741;52.672;13.548;2023-03-14T04:52:40;10.30;99.90
71084;DHT22;58741;52.672;13.548;2023-03-14T04:55:07;10.30;99.90
71084;DHT22;58741;52.672;13.548;2023-03-14T04:57:32;10.30;99.90
71084;DHT22;58741;52.672;13.548;2023-03-14T04:59:58;10.30;99.90
71084;DHT22;58741;52.672;13.548;2023-03-14T05:02:44;10.30;99.90
71084;DHT22;58741;52.672;13.548;2023-03-14T05:05:22;10.30;99.90
71084;DHT22;58741;52.672;13.548;2023-03-14T05:08:04;10.30;99.90
71084;DHT22;58741;52.672;13.548;2023-03-14T05:11:00;10.30;99.90
71084;DHT22;58741;52.672;13.548;2023-03-14T05:13:45;10.30;99.90
71084;DHT22;58741;52.672;13.548;2023-03-14T05:16:30;10.20;99.90
71084;DHT22;58741;52.672;13.548;2023-03-14T05:19:05;10.20;99.90
71084;DHT22;58741;52.672;13.548;2023-03-14T05:21:49;10.20;99.90
71084;DHT22;58741;52.672;13.548;2023-03-14T05:24:29;10.20;99.90
71084;DHT22;58741;52.672;13.548;2023-03-14T05:27:11;10.20;99.90
71084;DHT22;58741;52.672;13.548;2023-03-14T05:30:04;10.20;99.90
71084;DHT22;58741;52.672;13.548;2023-03-14T05:32:41;10.10;99.90
71084;DHT22;58741;52.672;13.548;2023-03-14T05:35:18;10.20;99.90
71084;DHT22;58741;52.672;13.548;2023-03-14T05:37:53;10.20;99.90
71084;DHT22;58741;52.672;13.548;2023-03-14T05:40:21;10.20;99.90
71084;DHT22;58741;52.672;13.548;2023-03-14T05:43:03;10.10;99.90
71084;DHT22;58741;52.672;13.548;2023-03-14T05:45:35;10.10;99.90
71084;DHT22;58741;52.672;13.548;2023-03-14T05:48:08;10.10;99.90
71084;DHT22;58741;52.672;13.548;2023-03-14T05:50:42;10.10;99.90
71084;DHT22;58741;52.672;13.548;2023-03-14T05:53:20;10.10;99.90
71084;DHT22;58741;52.672;13.548;2023-03-14T05:56:09;10.20;99.90
71084;DHT22;58741;52.672;13.548;2023-03-14T05:58:59;10.10;99.90
71084;DHT22;58741;52.672;13.548;2023-03-14T06:01:34;10.20;99.90
71084;DHT22;58741;52.672;13.548;2023-03-14T06:04:20;10.10;99.90
71084;DHT22;58741;52.672;13.548;2023-03-14T06:06:50;10.20;99.90
71084;DHT22;58741;52.672;13.548;2023-03-14T06:09:16;10.10;99.90
71084;DHT22;58741;52.672;13.548;2023-03-14T06:11:42;10.20;99.90
71084;DHT22;58741;52.672;13.548;2023-03-14T06:14:08;10.10;99.90
71084;DHT22;58741;52.672;13.548;2023-03-14T06:16:34;10.20;99.90
71084;DHT22;58741;52.672;13.548;2023-03-14T06:19:00;10.20;99.90
71084;DHT22;58741;52.672;13.548;2023-03-14T06:21:27;10.20;99.90
71084;DHT22;58741;52.672;13.548;2023-03-14T06:23:53;10.20;99.90
71084;DHT22;58741;52.672;13.548;2023-03-14T06:26:19;10.20;99.90
71084;DHT22;58741;52.672;13.548;2023-03-14T06:28:45;10.30;99.90
71084;DHT22;58741;52.672;13.548;2023-03-14T06:31:11;10.30;99.90
71084;DHT22;58741;52.672;13.548;2023-03-14T06:33:46;10.30;99.90
71084;DHT22;58741;52.672;13.548;2023-03-14T06:36:11;10.30;99.70
71084;DHT22;58741;52.672;13.548;2023-03-14T06:38:40;10.30;99.70
71084;DHT22;58741;52.672;13.548;2023-03-14T06:41:07;10.30;99.50
71084;DHT22;58741;52.672;13.548;2023-03-14T06:43:43;10.30;99.40
71084;DHT22;58741;52.672;13.548;2023-03-14T06:46:09;10.40;99.00
71084;DHT22;58741;52.672;13.548;2023-03-14T06:48:37;10.40;99.10
71084;DHT22;58741;52.672;13.548;2023-03-14T06:51:03;10.40;98.50
71084;DHT22;58741;52.672;13.548;2023-03-14T06:53:29;10.50;98.70
71084;DHT22;58741;52.672;13.548;2023-03-14T06:55:56;10.50;98.80
71084;DHT22;58741;52.672;13.548;2023-03-14T06:58:24;10.50;98.50
71084;DHT22;58741;52.672;13.548;2023-03-14T07:00:51;10.60;98.50
71084;DHT22;58741;52.672;13.548;2023-03-14T07:03:22;10.60;98.20
71084;DHT22;58741;52.672;13.548;2023-03-14T07:05:50;10.60;98.20
71084;DHT22;58741;52.672;13.548;2023-03-14T07:08:16;10.70;97.70
71084;DHT22;58741;52.672;13.548;2023-03-14T07:10:41;10.70;97.90
71084;DHT22;58741;52.672;13.548;2023-03-14T07:13:08;10.80;98.00
71084;DHT22;58741;52.672;13.548;2023-03-14T07:15:41;10.80;97.60
71084;DHT22;58741;52.672;13.548;2023-03-14T07:18:08;10.90;96.70
71084;DHT22;58741;52.672;13.548;2023-03-14T07:20:34;10.90;97.20
71084;DHT22;58741;52.672;13.548;2023-03-14T07:23:01;11.00;96.60
71084;DHT22;58741;52.672;13.548;2023-03-14T07:25:39;11.00;96.70
71084;DHT22;58741;52.672;13.548;2023-03-14T07:28:05;11.00;95.50
71084;DHT22;58741;52.672;13.548;2023-03-14T07:30:31;11.00;95.50
71084;DHT22;58741;52.672;13.548;2023-03-14T07:32:58;11.10;95.50
71084;DHT22;58741;52.672;13.548;2023-03-14T07:35:24;11.10;96.10
71084;DHT22;58741;52.672;13.548;2023-03-14T07:37:49;11.10;95.90
71084;DHT22;58741;52.672;13.548;2023-03-14T07:40:18;11.20;96.00
71084;DHT22;58741;52.672;13.548;2023-03-14T07:42:44;11.30;95.20
71084;DHT22;58741;52.672;13.548;2023-03-14T07:45:15;11.40;94.60
71084;DHT22;58741;52.672;13.548;2023-03-14T07:47:40;11.50;94.70
71084;DHT22;58741;52.672;13.548;2023-03-14T07:50:07;11.50;94.30
71084;DHT22;58741;52.672;13.548;2023-03-14T07:52:32;11.60;94.20
71084;DHT22;58741;52.672;13.548;2023-03-14T07:54:58;11.60;93.40
71084;DHT22;58741;52.672;13.548;2023-03-14T07:57:24;11.70;93.80
71084;DHT22;58741;52.672;13.548;2023-03-14T07:59:50;11.70;94.00
71084;DHT22;58741;52.672;13.548;2023-03-14T08:02:15;11.70;93.20
71084;DHT22;58741;52.672;13.548;2023-03-14T08:04:41;11.80;93.50
71084;DHT22;58741;52.672;13.548;2023-03-14T08:07:07;11.90;93.60
71084;DHT22;58741;52.672;13.548;2023-03-14T08:09:33;12.00;92.70
71084;DHT22;58741;52.672;13.548;2023-03-14T08:11:58;12.10;93.50
71084;DHT22;58741;52.672;13.548;2023-03-14T08:14:24;12.30;93.00
71084;DHT22;58741;52.672;13.548;2023-03-14T08:16:50;12.50;91.50
71084;DHT22;58741;52.672;13.548;2023-03-14T08:19:16;12.60;92.00
71084;DHT22;58741;52.672;13.548;2023-03-14T08:21:42;12.80;92.10
71084;DHT22;58741;52.672;13.548;2023-03-14T08:24:07;12.90;91.40
71084;DHT22;58741;52.672;13.548;2023-03-14T08:26:33;13.00;90.30
71084;DHT22;58741;52.672;13.548;2023-03-14T08:28:59;13.10;91.00
71084;DHT22;58741;52.672;13.548;2023-03-14T08:31:24;13.30;91.50
71084;DHT22;58741;52.672;13.548;2023-03-14T08:33:50;13.50;90.40
71084;DHT22;58741;52.672;13.548;2023-03-14T08:36:18;13.60;90.10
71084;DHT22;58741;52.672;13.548;2023-03-14T08:38:44;13.70;90.00
71084;DHT22;58741;52.672;13.548;2023-03-14T08:41:10;13.60;88.90
71084;DHT22;58741;52.672;13.548;2023-03-14T08:43:36;13.60;86.10
71084;DHT22;58741;52.672;13.548;2023-03-14T08:46:02;13.50;87.60
71084;DHT22;58741;52.672;13.548;2023-03-14T08:48:28;13.50;87.90
71084;DHT22;58741;52.672;13.548;2023-03-14T08:51:05;13.50;87.30
71084;DHT22;58741;52.672;13.548;2023-03-14T08:53:31;13.40;87.20
71084;DHT22;58741;52.672;13.548;2023-03-14T08:55:56;13.40;87.20
71084;DHT22;58741;52.672;13.548;2023-03-14T08:58:23;13.30;89.00
71084;DHT22;58741;52.672;13.548;2023-03-14T09:00:49;13.30;89.80
71084;DHT22;58741;52.672;13.548;2023-03-14T09:03:15;13.20;90.20
71084;DHT22;58741;52.672;13.548;2023-03-14T09:05:40;13.10;88.00
71084;DHT22;58741;52.672;13.548;2023-03-14T09:08:06;13.20;90.00
71084;DHT22;58741;52.672;13.548;2023-03-14T09:10:31;13.20;90.20
71084;DHT22;58741;52.672;13.548;2023-03-14T09:12:57;13.20;89.80
71084;DHT22;58741;52.672;13.548;2023-03-14T09:15:24;13.20;88.90
71084;DHT22;58741;52.672;13.548;2023-03-14T09:17:49;13.20;88.90
71084;DHT22;58741;52.672;13.548;2023-03-14T09:20:15;13.20;89.30
71084;DHT22;58741;52.672;13.548;2023-03-14T09:22:41;13.20;88.10
71084;DHT22;58741;52.672;13.548;2023-03-14T09:25:07;13.30;89.00
71084;DHT22;58741;52.672;13.548;2023-03-14T09:27:33;13.40;88.60
71084;DHT22;58741;52.672;13.548;2023-03-14T09:29:59;13.50;86.10
71084;DHT22;58741;52.672;13.548;2023-03-14T09:32:24;13.60;87.70
71084;DHT22;58741;52.672;13.548;2023-03-14T09:34:50;13.80;87.70
71084;DHT22;58741;52.672;13.548;2023-03-14T09:37:15;14.00;84.80
71084;DHT22;58741;52.672;13.548;2023-03-14T09:39:42;14.30;84.00
71084;DHT22;58741;52.672;13.548;2023-03-14T09:42:10;14.40;83.20
71084;DHT22;58741;52.672;13.548;2023-03-14T09:44:49;14.70;84.80
71084;DHT22;58741;52.672;13.548;2023-03-14T09:47:17;14.90;80.60
71084;DHT22;58741;52.672;13.548;2023-03-14T09:49:45;15.00;81.00
71084;DHT22;58741;52.672;13.548;2023-03-14T09:52:34;15.10;80.40
71084;DHT22;58741;52.672;13.548;2023-03-14T09:55:06;15.20;76.80
71084;DHT22;58741;52.672;13.548;2023-03-14T09:57:35;15.30;78.20
71084;DHT22;58741;52.672;13.548;2023-03-14T10:00:17;15.30;77.10
71084;DHT22;58741;52.672;13.548;2023-03-14T10:02:51;15.30;77.40
71084;DHT22;58741;52.672;13.548;2023-03-14T10:05:21;15.30;76.10
71084;DHT22;58741;52.672;13.548;2023-03-14T10:07:47;15.20;75.90
71084;DHT22;58741;52.672;13.548;2023-03-14T10:10:31;15.00;75.90
71084;DHT22;58741;52.672;13.548;2023-03-14T10:13:14;14.90;75.80
71084;DHT22;58741;52.672;13.548;2023-03-14T10:15:40;14.80;75.60
71084;DHT22;58741;52.672;13.548;2023-03-14T10:18:11;14.70;76.00
71084;DHT22;58741;52.672;13.548;2023-03-14T10:20:46;14.60;76.20
71084;DHT22;58741;52.672;13.548;2023-03-14T10:25:48;14.50;77.40
71084;DHT22;58741;52.672;13.548;2023-03-14T10:28:26;14.40;78.40
71084;DHT22;58741;52.672;13.548;2023-03-14T10:30:53;14.40;78.80
71084;DHT22;58741;52.672;13.548;2023-03-14T10:33:22;14.30;75.10
71084;DHT22;58741;52.672;13.548;2023-03-14T10:35:54;14.30;75.00
71084;DHT22;58741;52.672;13.548;2023-03-14T10:38:23;14.20;78.60
71084;DHT22;58741;52.672;13.548;2023-03-14T10:40:51;14.20;78.00
71084;DHT22;58741;52.672;13.548;2023-03-14T10:43:32;14.10;77.20
71084;DHT22;58741;52.672;13.548;2023-03-14T10:46:16;14.00;77.30
71084;DHT22;58741;52.672;13.548;2023-03-14T10:49:05;14.00;78.80
71084;DHT22;58741;52.672;13.548;2023-03-14T10:51:32;13.90;76.90
71084;DHT22;58741;52.672;13.548;2023-03-14T10:54:18;13.90;77.20
71084;DHT22;58741;52.672;13.548;2023-03-14T10:56:44;13.80;78.50
71084;DHT22;58741;52.672;13.548;2023-03-14T10:59:14;13.80;78.10
71084;DHT22;58741;52.672;13.548;2023-03-14T11:02:00;13.80;77.60
71084;DHT22;58741;52.672;13.548;2023-03-14T11:07:28;13.80;78.50
71084;DHT22;58741;52.672;13.548;2023-03-14T11:10:12;13.70;76.30
71084;DHT22;58741;52.672;13.548;2023-03-14T11:21:08;13.70;79.80
71084;DHT22;58741;52.672;13.548;2023-03-14T11:26:37;13.60;78.80
71084;DHT22;58741;52.672;13.548;2023-03-14T11:29:41;13.60;78.50
71084;DHT22;58741;52.672;13.548;2023-03-14T11:32:41;13.50;77.60
71084;DHT22;58741;52.672;13.548;2023-03-14T11:35:52;13.50;79.20
71084;DHT22;58741;52.672;13.548;2023-03-14T11:40:35;13.40;79.50
71084;DHT22;58741;52.672;13.548;2023-03-14T11:43:20;13.40;80.10
71084;DHT22;58741;52.672;13.548;2023-03-14T11:45:49;13.40;77.20
71084;DHT22;58741;52.672;13.548;2023-03-14T11:50:48;13.40;79.40
71084;DHT22;58741;52.672;13.548;2023-03-14T11:53:40;13.40;79.60
71084;DHT22;58741;52.672;13.548;2023-03-14T11:56:31;13.50;80.30
71084;DHT22;58741;52.672;13.548;2023-03-14T11:59:03;13.50;79.70
71084;DHT22;58741;52.672;13.548;2023-03-14T12:01:39;13.50;79.80
71084;DHT22;58741;52.672;13.548;2023-03-14T12:07:02;13.50;81.30
71084;DHT22;58741;52.672;13.548;2023-03-14T12:09:29;13.50;80.50
71084;DHT22;58741;52.672;13.548;2023-03-14T12:11:56;13.60;82.50
71084;DHT22;58741;52.672;13.548;2023-03-14T12:14:32;13.50;82.20
71084;DHT22;58741;52.672;13.548;2023-03-14T12:17:05;13.50;81.60
71084;DHT22;58741;52.672;13.548;2023-03-14T12:19:36;13.50;82.70
71084;DHT22;58741;52.672;13.548;2023-03-14T12:22:07;13.40;82.40
71084;DHT22;58741;52.672;13.548;2023-03-14T12:24:35;13.40;84.70
71084;DHT22;58741;52.672;13.548;2023-03-14T12:27:04;13.30;86.80
71084;DHT22;58741;52.672;13.548;2023-03-14T12:29:30;13.30;88.80
71084;DHT22;58741;52.672;13.548;2023-03-14T12:32:22;13.20;89.80
71084;DHT22;58741;52.672;13.548;2023-03-14T12:34:49;13.10;90.90
71084;DHT22;58741;52.672;13.548;2023-03-14T12:37:42;13.00;91.10
71084;DHT22;58741;52.672;13.548;2023-03-14T12:40:41;12.90;91.70
71084;DHT22;58741;52.672;13.548;2023-03-14T12:43:28;12.90;92.10
71084;DHT22;58741;52.672;13.548;2023-03-14T12:46:22;12.90;92.60
71084;DHT22;58741;52.672;13.548;2023-03-14T12:49:03;12.90;93.00
71084;DHT22;58741;52.672;13.548;2023-03-14T12:51:38;12.90;93.20
71084;DHT22;58741;52.672;13.548;2023-03-14T12:54:43;13.00;92.50
71084;DHT22;58741;52.672;13.548;2023-03-14T12:57:25;13.10;92.60
71084;DHT22;58741;52.672;13.548;2023-03-14T12:59:58;13.20;93.10
71084;DHT22;58741;52.672;13.548;2023-03-14T13:02:42;13.40;92.80
71084;DHT22;58741;52.672;13.548;2023-03-14T13:05:16;13.50;91.20
71084;DHT22;58741;52.672;13.548;2023-03-14T13:12:40;13.40;90.40
71084;DHT22;58741;52.672;13.548;2023-03-14T13:15:22;13.40;90.40
71084;DHT22;58741;52.672;13.548;2023-03-14T13:17:51;13.40;90.50
71084;DHT22;58741;52.672;13.548;2023-03-14T13:20:49;13.40;90.40
71084;DHT22;58741;52.672;13.548;2023-03-14T13:23:24;13.50;90.60
71084;DHT22;58741;52.672;13.548;2023-03-14T13:25:51;13.50;90.10
71084;DHT22;58741;52.672;13.548;2023-03-14T13:28:17;13.50;88.70
71084;DHT22;58741;52.672;13.548;2023-03-14T13:30:45;13.60;89.50
71084;DHT22;58741;52.672;13.548;2023-03-14T13:33:14;13.60;89.40
71084;DHT22;58741;52.672;13.548;2023-03-14T13:35:43;13.80;89.20
71084;DHT22;58741;52.672;13.548;2023-03-14T13:38:19;13.90;90.00
71084;DHT22;58741;52.672;13.548;2023-03-14T13:40:46;14.00;90.60
71084;DHT22;58741;52.672;13.548;2023-03-14T13:43:32;14.30;88.40
71084;DHT22;58741;52.672;13.548;2023-03-14T13:46:31;14.50;88.60
71084;DHT22;58741;52.672;13.548;2023-03-14T13:48:56;14.70;83.20
71084;DHT22;58741;52.672;13.548;2023-03-14T13:51:23;15.00;82.10
71084;DHT22;58741;52.672;13.548;2023-03-14T13:53:55;15.20;83.10
71084;DHT22;58741;52.672;13.548;2023-03-14T13:56:22;15.40;83.50
71084;DHT22;58741;52.672;13.548;2023-03-14T13:58:49;15.50;78.80
71084;DHT22;58741;52.672;13.548;2023-03-14T14:01:25;15.50;80.30
71084;DHT22;58741;52.672;13.548;2023-03-14T14:03:54;15.50;80.10
71084;DHT22;58741;52.672;13.548;2023-03-14T14:06:35;15.50;81.10
71084;DHT22;58741;52.672;13.548;2023-03-14T14:09:11;15.50;78.80
71084;DHT22;58741;52.672;13.548;2023-03-14T14:11:39;15.50;78.00
71084;DHT22;58741;52.672;13.548;2023-03-14T14:14:12;15.40;79.40
71084;DHT22;58741;52.672;13.548;2023-03-14T14:16:38;15.30;79.70
71084;DHT22;58741;52.672;13.548;2023-03-14T14:19:05;15.20;81.40
71084;DHT22;58741;52.672;13.548;2023-03-14T14:21:31;15.30;82.20
71084;DHT22;58741;52.672;13.548;2023-03-14T14:23:57;15.30;79.90
71084;DHT22;58741;52.672;13.548;2023-03-14T14:26:23;15.30;79.20
71084;DHT22;58741;52.672;13.548;2023-03-14T14:28:59;15.30;80.50
71084;DHT22;58741;52.672;13.548;2023-03-14T14:31:25;15.30;80.50
71084;DHT22;58741;52.672;13.548;2023-03-14T14:34:02;15.40;79.90
71084;DHT22;58741;52.672;13.548;2023-03-14T14:36:39;15.40;80.40
71084;DHT22;58741;52.672;13.548;2023-03-14T14:39:25;15.40;77.70
71084;DHT22;58741;52.672;13.548;2023-03-14T14:41:52;15.30;79.30
71084;DHT22;58741;52.672;13.548;2023-03-14T14:44:24;15.20;79.40
71084;DHT22;58741;52.672;13.548;2023-03-14T14:46:51;15.10;79.00
71084;DHT22;58741;52.672;13.548;2023-03-14T14:49:19;15.00;80.20
71084;DHT22;58741;52.672;13.548;2023-03-14T14:51:48;14.90;79.00
71084;DHT22;58741;52.672;13.548;2023-03-14T14:54:20;14.80;79.50
71084;DHT22;58741;52.672;13.548;2023-03-14T14:57:02;14.70;79.90
71084;DHT22;58741;52.672;13.548;2023-03-14T14:59:28;14.60;80.50
71084;DHT22;58741;52.672;13.548;2023-03-14T15:01:59;14.50;81.70
71084;DHT22;58741;52.672;13.548;2023-03-14T15:04:25;14.30;84.20
71084;DHT22;58741;52.672;13.548;2023-03-14T15:06:52;14.30;84.30
71084;DHT22;58741;52.672;13.548;2023-03-14T15:09:19;14.20;86.10
71084;DHT22;58741;52.672;13.548;2023-03-14T15:11:46;14.10;87.70
71084;DHT22;58741;52.672;13.548;2023-03-14T15:14:12;13.90;90.00
71084;DHT22;58741;52.672;13.548;2023-03-14T15:16:38;13.70;90.20
71084;DHT22;58741;52.672;13.548;2023-03-14T15:19:25;13.50;90.90
71084;DHT22;58741;52.672;13.548;2023-03-14T15:21:54;13.40;91.30
71084;DHT22;58741;52.672;13.548;2023-03-14T15:24:20;13.30;91.60
71084;DHT22;58741;52.672;13.548;2023-03-14T15:26:46;13.20;90.40
71084;DHT22;58741;52.672;13.548;2023-03-14T15:29:11;12.60;89.30
71084;DHT22;58741;52.672;13.548;2023-03-14T15:31:38;12.20;87.30
71084;DHT22;58741;52.672;13.548;2023-03-14T15:34:04;11.70;88.20
71084;DHT22;58741;52.672;13.548;2023-03-14T15:36:32;11.20;87.70
71084;DHT22;58741;52.672;13.548;2023-03-14T15:38:59;10.70;88.40
71084;DHT22;58741;52.672;13.548;2023-03-14T15:41:26;10.40;89.10
71084;DHT22;58741;52.672;13.548;2023-03-14T15:43:53;9.90;89.60
71084;DHT22;58741;52.672;13.548;2023-03-14T15:46:19;9.60;90.50
71084;DHT22;58741;52.672;13.548;2023-03-14T15:48:47;9.20;90.10
71084;DHT22;58741;52.672;13.548;2023-03-14T15:51:14;8.90;90.40
71084;DHT22;58741;52.672;13.548;2023-03-14T15:53:39;8.60;90.90
71084;DHT22;58741;52.672;13.548;2023-03-14T15:56:07;8.30;91.20
71084;DHT22;58741;52.672;13.548;2023-03-14T15:58:33;8.00;90.80
71084;DHT22;58741;52.672;13.548;2023-03-14T16:01:01;7.70;90.40
71084;DHT22;58741;52.672;13.548;2023-03-14T16:03:30;7.40;90.40
71084;DHT22;58741;52.672;13.548;2023-03-14T16:05:56;7.20;90.70
71084;DHT22;58741;52.672;13.548;2023-03-14T16:08:23;6.90;90.50
71084;DHT22;58741;52.672;13.548;2023-03-14T16:10:50;6.60;91.00
71084;DHT22;58741;52.672;13.548;2023-03-14T16:13:16;6.40;90.80
71084;DHT22;58741;52.672;13.548;2023-03-14T16:15:42;6.10;91.10
71084;DHT22;58741;52.672;13.548;2023-03-14T16:18:07;5.90;91.70
71084;DHT22;58741;52.672;13.548;2023-03-14T16:20:33;5.80;91.90